Meteo Giornale » Osservazioni meteo Italia » Genova-Sestri

ore: 17:20 - Osservazioni Meteo Genova-Sestri
Lat. 44° 25' N Lon. 8° 51' E Alt. 2 metri s.l.m.

nuvoloso Europe/Rome

29 °C

Nuvoloso

Temp. 24 Ore

23 °C

31 °C

Ovest/Sud-Ovest

7.4 Km/h

Dew point 17 °C

Umidità 48 %

Visibilità  10 Km

Il sole sorge alle ore 06:27

Il sole tramonta alle ore 20:29

Data e Ora Cielo e Fenomeni T °C DP °C Um. % Pres. hPa Vis. km Vento km/h
Oggi h: 17:20 nuvoloso Nuvoloso 29 17 48 1013 10 O/SO 7.4
Oggi h: 16:50 poco_nuvoloso Poco Nuvoloso 29 17 48 1013 10 N 3.7
Oggi h: 16:20 poco_nuvoloso Poco Nuvoloso 30 17 45 1014 10 N 5.5
Oggi h: 15:50 poco_nuvoloso Poco Nuvoloso 30 16 42 1014 10 SO 7.4
Oggi h: 15:20 poco_nuvoloso Poco Nuvoloso 30 16 42 1014 10 S/SO 11.1
Oggi h: 14:50 poco_nuvoloso Poco Nuvoloso 30 17 45 1014 10 SO 9.3
Oggi h: 14:20 poco_nuvoloso Poco Nuvoloso 30 16 42 1014 10 O/SO 13
Oggi h: 13:50 poco_nuvoloso Poco Nuvoloso 30 18 48 1015 10 O/SO 13
Oggi h: 13:20 poco_nuvoloso Poco Nuvoloso 30 18 48 1015 10 O/SO 13
Oggi h: 12:50 poco_nuvoloso Poco Nuvoloso 29 18 51 1015 10 O/SO 13
Oggi h: 12:20 sereno Sereno 29 20 58 1015 10 SO 11.1
Oggi h: 11:50 sereno Sereno 29 18 51 1015 10 SO 14.8
Oggi h: 11:20 sereno Sereno 31 14 35 1015 10 N 5.5
Oggi h: 10:50 sereno Sereno 29 14 39 1016 10 NE 11.1
Oggi h: 10:20 poco_nuvoloso Poco Nuvoloso 29 15 42 1016 10 N/NE 9.3
Oggi h: 09:50 poco_nuvoloso Poco Nuvoloso 28 15 45 1016 10 N/NE 7.4
Oggi h: 09:20 sereno Sereno 27 14 44 1016 10 N/NE 9.3
Oggi h: 08:50 sereno Sereno 27 14 44 1016 10 N/NE 7.4
Oggi h: 08:20 sereno Sereno 26 14 47 1015 10 N 7.4
Oggi h: 07:50 sereno Sereno 25 13 47 1015 10 N/NE 7.4
Oggi h: 07:20 sereno Sereno 24 13 50 1015 10 N 7.4
Oggi h: 06:50 sereno Sereno 23 13 53 1015 10 N 7.4
Oggi h: 06:20 sereno Sereno 23 13 53 1015 10 N/NE 11.1
Oggi h: 05:50 sereno Sereno 23 13 53 1015 10 N/NE 9.3
Oggi h: 05:20 sereno Sereno 23 13 53 1015 10 N/NE 7.4
Oggi h: 04:50 sereno Sereno 24 13 50 1015 10 N/NE 9.3
Oggi h: 04:20 sereno Sereno 24 13 50 1015 10 N/NE 9.3
Oggi h: 03:50 sereno Sereno 24 13 50 1016 10 N/NE 7.4
Oggi h: 03:20 sereno Sereno 24 13 50 1016 10 N 5.5
Oggi h: 02:50 sereno Sereno 24 13 50 1016 10 N/NE 9.3
Oggi h: 02:20 sereno Sereno 25 13 47 1016 10 N 7.4
Oggi h: 01:50 sereno Sereno 24 13 50 1016 10 N 5.5
Oggi h: 01:20 sereno Sereno 24 14 53 1016 10 N 7.4
Oggi h: 00:50 sereno Sereno 24 14 53 1016 10 NE 9.3
Oggi h: 00:20 sereno Sereno 25 14 50 1016 10 N/NE 9.3
Ieri h: 23:50 sereno Sereno 25 14 50 1016 10 N/NE 9.3
Ieri h: 23:20 sereno Sereno 25 15 53 1015 10 N/NE 7.4
Ieri h: 22:50 sereno Sereno 25 15 53 1015 10 N/NO 7.4
Ieri h: 22:20 sereno Sereno 25 15 53 1015 10 N/NE 9.3
Ieri h: 21:50 sereno Sereno 27 14 44 1015 10 NE 9.3
Ieri h: 21:20 sereno Sereno 27 16 50 1015 10 N/NE 9.3
Ieri h: 20:50 sereno Sereno 27 17 54 1014 10 N/NE 7.4
Ieri h: 20:20 sereno Sereno 28 19 58 1014 10 N 3.7
Ieri h: 19:50 sereno Sereno 28 20 61 1014 10 N 3.7
Ieri h: 19:20 sereno Sereno 29 20 58 1014 10 N 5.5
Ieri h: 18:50 poco_nuvoloso Poco Nuvoloso 29 22 66 1014 10 S/SE 7.4
Ieri h: 18:20 poco_nuvoloso Poco Nuvoloso 30 17 45 1014 10 S/SO 9.3
Ieri h: 17:50 poco_nuvoloso Poco Nuvoloso 30 21 58 1014 10 S 7.4